sensor_id;sensor_type;location;lat;lon;timestamp;temperature;humidity
21033;DHT22;10675;47.976;7.824;2023-04-22T00:00:11;10.20;99.90
21033;DHT22;10675;47.976;7.824;2023-04-22T00:02:37;10.20;99.90
21033;DHT22;10675;47.976;7.824;2023-04-22T00:05:04;10.20;99.90
21033;DHT22;10675;47.976;7.824;2023-04-22T00:07:30;10.10;99.90
21033;DHT22;10675;47.976;7.824;2023-04-22T00:09:55;10.10;99.90
21033;DHT22;10675;47.976;7.824;2023-04-22T00:12:21;10.10;99.90
21033;DHT22;10675;47.976;7.824;2023-04-22T00:14:47;10.00;99.90
21033;DHT22;10675;47.976;7.824;2023-04-22T00:17:12;10.00;99.90
21033;DHT22;10675;47.976;7.824;2023-04-22T00:19:38;10.00;99.90
21033;DHT22;10675;47.976;7.824;2023-04-22T00:22:04;10.00;99.90
21033;DHT22;10675;47.976;7.824;2023-04-22T00:24:29;10.00;99.90
21033;DHT22;10675;47.976;7.824;2023-04-22T00:26:55;10.00;99.90
21033;DHT22;10675;47.976;7.824;2023-04-22T00:29:20;9.90;99.90
21033;DHT22;10675;47.976;7.824;2023-04-22T00:31:46;9.90;99.90
21033;DHT22;10675;47.976;7.824;2023-04-22T00:34:11;9.80;99.90
21033;DHT22;10675;47.976;7.824;2023-04-22T00:36:37;9.80;99.90
21033;DHT22;10675;47.976;7.824;2023-04-22T00:39:03;9.80;99.90
21033;DHT22;10675;47.976;7.824;2023-04-22T00:41:28;9.80;99.90
21033;DHT22;10675;47.976;7.824;2023-04-22T00:43:55;9.70;99.90
21033;DHT22;10675;47.976;7.824;2023-04-22T00:46:21;9.60;99.90
21033;DHT22;10675;47.976;7.824;2023-04-22T00:48:47;9.60;99.90
21033;DHT22;10675;47.976;7.824;2023-04-22T00:51:13;9.60;99.90
21033;DHT22;10675;47.976;7.824;2023-04-22T00:53:39;9.50;99.90
21033;DHT22;10675;47.976;7.824;2023-04-22T00:56:05;9.50;99.90
21033;DHT22;10675;47.976;7.824;2023-04-22T00:58:30;9.50;99.90
21033;DHT22;10675;47.976;7.824;2023-04-22T01:00:56;9.50;99.90
21033;DHT22;10675;47.976;7.824;2023-04-22T01:03:22;9.40;99.90
21033;DHT22;10675;47.976;7.824;2023-04-22T01:05:48;9.30;99.90
21033;DHT22;10675;47.976;7.824;2023-04-22T01:08:14;9.30;99.90
21033;DHT22;10675;47.976;7.824;2023-04-22T01:10:40;9.20;99.90
21033;DHT22;10675;47.976;7.824;2023-04-22T01:13:06;9.20;99.90
21033;DHT22;10675;47.976;7.824;2023-04-22T01:15:32;9.20;99.90
21033;DHT22;10675;47.976;7.824;2023-04-22T01:17:59;9.20;99.90
21033;DHT22;10675;47.976;7.824;2023-04-22T01:20:27;9.20;99.90
21033;DHT22;10675;47.976;7.824;2023-04-22T01:22:56;9.10;99.90
21033;DHT22;10675;47.976;7.824;2023-04-22T01:25:23;8.90;99.90
21033;DHT22;10675;47.976;7.824;2023-04-22T01:27:49;8.90;99.90
21033;DHT22;10675;47.976;7.824;2023-04-22T01:30:15;8.90;99.90
21033;DHT22;10675;47.976;7.824;2023-04-22T01:32:41;8.90;99.90
21033;DHT22;10675;47.976;7.824;2023-04-22T01:35:08;8.90;99.90
21033;DHT22;10675;47.976;7.824;2023-04-22T01:37:34;8.90;99.90
21033;DHT22;10675;47.976;7.824;2023-04-22T01:39:59;8.90;99.90
21033;DHT22;10675;47.976;7.824;2023-04-22T01:42:25;8.80;99.90
21033;DHT22;10675;47.976;7.824;2023-04-22T01:44:51;8.70;99.90
21033;DHT22;10675;47.976;7.824;2023-04-22T01:47:16;8.80;99.90
21033;DHT22;10675;47.976;7.824;2023-04-22T01:49:42;8.70;99.90
21033;DHT22;10675;47.976;7.824;2023-04-22T01:52:08;8.60;99.90
21033;DHT22;10675;47.976;7.824;2023-04-22T01:54:34;8.60;99.90
21033;DHT22;10675;47.976;7.824;2023-04-22T01:57:05;8.50;99.90
21033;DHT22;10675;47.976;7.824;2023-04-22T01:59:30;8.50;99.90
21033;DHT22;10675;47.976;7.824;2023-04-22T02:01:56;8.50;99.90
21033;DHT22;10675;47.976;7.824;2023-04-22T02:04:21;8.50;99.90
21033;DHT22;10675;47.976;7.824;2023-04-22T02:06:47;8.50;99.90
21033;DHT22;10675;47.976;7.824;2023-04-22T02:09:12;8.50;99.90
21033;DHT22;10675;47.976;7.824;2023-04-22T02:11:38;8.50;99.90
21033;DHT22;10675;47.976;7.824;2023-04-22T02:14:03;8.50;99.90
21033;DHT22;10675;47.976;7.824;2023-04-22T02:16:29;8.60;99.90
21033;DHT22;10675;47.976;7.824;2023-04-22T02:18:55;8.50;99.90
21033;DHT22;10675;47.976;7.824;2023-04-22T02:21:20;8.50;99.90
21033;DHT22;10675;47.976;7.824;2023-04-22T02:23:46;8.50;99.90
21033;DHT22;10675;47.976;7.824;2023-04-22T02:26:11;8.50;99.90
21033;DHT22;10675;47.976;7.824;2023-04-22T02:28:37;8.40;99.90
21033;DHT22;10675;47.976;7.824;2023-04-22T02:31:02;8.40;99.90
21033;DHT22;10675;47.976;7.824;2023-04-22T02:33:28;8.40;99.90
21033;DHT22;10675;47.976;7.824;2023-04-22T02:35:53;8.40;99.90
21033;DHT22;10675;47.976;7.824;2023-04-22T02:38:19;8.30;99.90
21033;DHT22;10675;47.976;7.824;2023-04-22T02:40:45;8.30;99.90
21033;DHT22;10675;47.976;7.824;2023-04-22T02:43:10;8.30;99.90
21033;DHT22;10675;47.976;7.824;2023-04-22T02:45:36;8.20;99.90
21033;DHT22;10675;47.976;7.824;2023-04-22T02:48:02;8.30;99.90
21033;DHT22;10675;47.976;7.824;2023-04-22T02:50:27;8.30;99.90
21033;DHT22;10675;47.976;7.824;2023-04-22T02:52:53;8.30;99.90
21033;DHT22;10675;47.976;7.824;2023-04-22T02:55:18;8.30;99.90
21033;DHT22;10675;47.976;7.824;2023-04-22T02:57:44;8.30;99.90
21033;DHT22;10675;47.976;7.824;2023-04-22T03:00:10;8.30;99.90
21033;DHT22;10675;47.976;7.824;2023-04-22T03:02:36;8.30;99.90
21033;DHT22;10675;47.976;7.824;2023-04-22T03:05:01;8.30;99.90
21033;DHT22;10675;47.976;7.824;2023-04-22T03:07:27;8.30;99.90
21033;DHT22;10675;47.976;7.824;2023-04-22T03:09:52;8.30;99.90
21033;DHT22;10675;47.976;7.824;2023-04-22T03:12:20;8.30;99.90
21033;DHT22;10675;47.976;7.824;2023-04-22T03:14:45;8.20;99.90
21033;DHT22;10675;47.976;7.824;2023-04-22T03:17:11;8.20;99.90
21033;DHT22;10675;47.976;7.824;2023-04-22T03:19:36;8.20;99.90
21033;DHT22;10675;47.976;7.824;2023-04-22T03:22:02;8.20;99.90
21033;DHT22;10675;47.976;7.824;2023-04-22T03:24:27;8.10;99.90
21033;DHT22;10675;47.976;7.824;2023-04-22T03:26:53;8.20;99.90
21033;DHT22;10675;47.976;7.824;2023-04-22T03:29:18;8.20;99.90
21033;DHT22;10675;47.976;7.824;2023-04-22T03:31:44;8.30;99.90
21033;DHT22;10675;47.976;7.824;2023-04-22T03:34:09;8.30;99.90
21033;DHT22;10675;47.976;7.824;2023-04-22T03:36:35;8.40;99.90
21033;DHT22;10675;47.976;7.824;2023-04-22T03:39:00;8.30;99.90
21033;DHT22;10675;47.976;7.824;2023-04-22T03:41:26;8.30;99.90
21033;DHT22;10675;47.976;7.824;2023-04-22T03:43:51;8.40;99.90
21033;DHT22;10675;47.976;7.824;2023-04-22T03:46:17;8.30;99.90
21033;DHT22;10675;47.976;7.824;2023-04-22T03:48:43;8.30;99.90
21033;DHT22;10675;47.976;7.824;2023-04-22T03:51:08;8.20;99.90
21033;DHT22;10675;47.976;7.824;2023-04-22T03:53:34;8.20;99.90
21033;DHT22;10675;47.976;7.824;2023-04-22T03:55:59;8.10;99.90
21033;DHT22;10675;47.976;7.824;2023-04-22T03:58:25;8.10;99.90
21033;DHT22;10675;47.976;7.824;2023-04-22T04:00:50;8.10;99.90
21033;DHT22;10675;47.976;7.824;2023-04-22T04:03:16;8.10;99.90
21033;DHT22;10675;47.976;7.824;2023-04-22T04:05:41;8.00;99.90
21033;DHT22;10675;47.976;7.824;2023-04-22T04:08:07;8.00;99.90
21033;DHT22;10675;47.976;7.824;2023-04-22T04:10:32;8.10;99.90
21033;DHT22;10675;47.976;7.824;2023-04-22T04:12:58;8.10;99.90
21033;DHT22;10675;47.976;7.824;2023-04-22T04:15:23;8.10;99.90
21033;DHT22;10675;47.976;7.824;2023-04-22T04:17:49;8.00;99.90
21033;DHT22;10675;47.976;7.824;2023-04-22T04:20:15;8.00;99.90
21033;DHT22;10675;47.976;7.824;2023-04-22T04:22:40;8.00;99.90
21033;DHT22;10675;47.976;7.824;2023-04-22T04:25:08;8.00;99.90
21033;DHT22;10675;47.976;7.824;2023-04-22T04:27:33;8.00;99.90
21033;DHT22;10675;47.976;7.824;2023-04-22T04:29:59;8.00;99.90
21033;DHT22;10675;47.976;7.824;2023-04-22T04:32:25;8.00;99.90
21033;DHT22;10675;47.976;7.824;2023-04-22T04:34:51;7.90;99.90
21033;DHT22;10675;47.976;7.824;2023-04-22T04:37:17;7.90;99.90
21033;DHT22;10675;47.976;7.824;2023-04-22T04:39:43;7.90;99.90
21033;DHT22;10675;47.976;7.824;2023-04-22T04:42:08;7.90;99.90
21033;DHT22;10675;47.976;7.824;2023-04-22T04:44:34;8.00;99.90
21033;DHT22;10675;47.976;7.824;2023-04-22T04:47:00;8.00;99.90
21033;DHT22;10675;47.976;7.824;2023-04-22T04:49:27;8.00;99.90
21033;DHT22;10675;47.976;7.824;2023-04-22T04:51:55;7.90;99.90
21033;DHT22;10675;47.976;7.824;2023-04-22T04:54:21;7.90;99.90
21033;DHT22;10675;47.976;7.824;2023-04-22T04:56:47;7.90;99.90
21033;DHT22;10675;47.976;7.824;2023-04-22T04:59:12;7.90;99.90
21033;DHT22;10675;47.976;7.824;2023-04-22T05:01:38;7.90;99.90
21033;DHT22;10675;47.976;7.824;2023-04-22T05:04:04;8.00;99.90
21033;DHT22;10675;47.976;7.824;2023-04-22T05:06:29;8.00;99.90
21033;DHT22;10675;47.976;7.824;2023-04-22T05:08:57;8.00;99.90
21033;DHT22;10675;47.976;7.824;2023-04-22T05:11:22;8.00;99.90
21033;DHT22;10675;47.976;7.824;2023-04-22T05:13:48;8.10;99.90
21033;DHT22;10675;47.976;7.824;2023-04-22T05:16:14;8.10;99.90
21033;DHT22;10675;47.976;7.824;2023-04-22T05:18:39;8.10;99.90
21033;DHT22;10675;47.976;7.824;2023-04-22T05:21:06;8.10;99.90
21033;DHT22;10675;47.976;7.824;2023-04-22T05:23:32;8.20;99.90
21033;DHT22;10675;47.976;7.824;2023-04-22T05:25:57;8.30;99.90
21033;DHT22;10675;47.976;7.824;2023-04-22T05:28:23;8.30;99.90
21033;DHT22;10675;47.976;7.824;2023-04-22T05:30:49;8.30;99.90
21033;DHT22;10675;47.976;7.824;2023-04-22T05:33:14;8.40;99.90
21033;DHT22;10675;47.976;7.824;2023-04-22T05:35:40;8.40;99.90
21033;DHT22;10675;47.976;7.824;2023-04-22T05:38:05;8.40;99.90
21033;DHT22;10675;47.976;7.824;2023-04-22T05:40:31;8.40;99.90
21033;DHT22;10675;47.976;7.824;2023-04-22T05:42:57;8.50;99.90
21033;DHT22;10675;47.976;7.824;2023-04-22T05:45:22;8.60;99.90
21033;DHT22;10675;47.976;7.824;2023-04-22T05:47:48;8.70;99.90
21033;DHT22;10675;47.976;7.824;2023-04-22T05:50:14;8.90;99.90
21033;DHT22;10675;47.976;7.824;2023-04-22T05:52:39;9.00;99.90
21033;DHT22;10675;47.976;7.824;2023-04-22T05:55:05;9.10;99.90
21033;DHT22;10675;47.976;7.824;2023-04-22T05:57:31;9.30;99.90
21033;DHT22;10675;47.976;7.824;2023-04-22T05:59:58;9.40;99.90
21033;DHT22;10675;47.976;7.824;2023-04-22T06:02:24;9.40;99.90
21033;DHT22;10675;47.976;7.824;2023-04-22T06:04:49;9.70;99.90
21033;DHT22;10675;47.976;7.824;2023-04-22T06:07:15;9.90;99.90
21033;DHT22;10675;47.976;7.824;2023-04-22T06:09:41;9.90;99.90
21033;DHT22;10675;47.976;7.824;2023-04-22T06:12:06;10.10;99.90
21033;DHT22;10675;47.976;7.824;2023-04-22T06:14:32;10.40;99.90
21033;DHT22;10675;47.976;7.824;2023-04-22T06:16:57;10.60;99.90
21033;DHT22;10675;47.976;7.824;2023-04-22T06:19:23;10.70;99.90
21033;DHT22;10675;47.976;7.824;2023-04-22T06:21:48;10.90;99.90
21033;DHT22;10675;47.976;7.824;2023-04-22T06:24:14;11.00;99.90
21033;DHT22;10675;47.976;7.824;2023-04-22T06:26:39;11.10;99.90
21033;DHT22;10675;47.976;7.824;2023-04-22T06:29:05;11.20;99.90
21033;DHT22;10675;47.976;7.824;2023-04-22T06:31:31;11.30;99.90
21033;DHT22;10675;47.976;7.824;2023-04-22T06:33:56;11.40;99.90
21033;DHT22;10675;47.976;7.824;2023-04-22T06:36:22;11.40;99.90
21033;DHT22;10675;47.976;7.824;2023-04-22T06:38:48;11.50;99.90
21033;DHT22;10675;47.976;7.824;2023-04-22T06:41:14;11.60;99.90
21033;DHT22;10675;47.976;7.824;2023-04-22T06:43:40;11.60;99.90
21033;DHT22;10675;47.976;7.824;2023-04-22T06:46:05;11.70;99.90
21033;DHT22;10675;47.976;7.824;2023-04-22T06:48:31;11.70;99.90
21033;DHT22;10675;47.976;7.824;2023-04-22T06:50:56;11.80;99.90
21033;DHT22;10675;47.976;7.824;2023-04-22T06:53:22;11.90;99.90
21033;DHT22;10675;47.976;7.824;2023-04-22T06:55:47;11.90;99.90
21033;DHT22;10675;47.976;7.824;2023-04-22T06:58:13;11.80;99.90
21033;DHT22;10675;47.976;7.824;2023-04-22T07:00:38;11.90;99.90
21033;DHT22;10675;47.976;7.824;2023-04-22T07:03:04;12.00;99.90
21033;DHT22;10675;47.976;7.824;2023-04-22T07:05:30;12.00;99.90
21033;DHT22;10675;47.976;7.824;2023-04-22T07:07:56;12.20;99.90
21033;DHT22;10675;47.976;7.824;2023-04-22T07:10:22;12.20;99.90
21033;DHT22;10675;47.976;7.824;2023-04-22T07:12:47;12.30;99.90
21033;DHT22;10675;47.976;7.824;2023-04-22T07:15:13;12.20;99.90
21033;DHT22;10675;47.976;7.824;2023-04-22T07:17:38;12.40;99.90
21033;DHT22;10675;47.976;7.824;2023-04-22T07:20:04;12.60;99.90
21033;DHT22;10675;47.976;7.824;2023-04-22T07:22:30;12.80;99.90
21033;DHT22;10675;47.976;7.824;2023-04-22T07:24:56;13.10;99.90
21033;DHT22;10675;47.976;7.824;2023-04-22T07:27:21;13.10;99.90
21033;DHT22;10675;47.976;7.824;2023-04-22T07:29:47;13.30;99.90
21033;DHT22;10675;47.976;7.824;2023-04-22T07:32:12;13.40;99.90
21033;DHT22;10675;47.976;7.824;2023-04-22T07:34:38;13.40;99.90
21033;DHT22;10675;47.976;7.824;2023-04-22T07:37:03;13.60;99.90
21033;DHT22;10675;47.976;7.824;2023-04-22T07:39:31;13.80;99.90
21033;DHT22;10675;47.976;7.824;2023-04-22T07:41:56;13.90;99.90
21033;DHT22;10675;47.976;7.824;2023-04-22T07:44:22;14.00;99.90
21033;DHT22;10675;47.976;7.824;2023-04-22T07:46:48;14.10;99.90
21033;DHT22;10675;47.976;7.824;2023-04-22T07:49:14;14.10;99.90
21033;DHT22;10675;47.976;7.824;2023-04-22T07:51:42;14.10;99.90
21033;DHT22;10675;47.976;7.824;2023-04-22T07:54:07;14.20;99.90
21033;DHT22;10675;47.976;7.824;2023-04-22T07:56:33;14.40;99.90
21033;DHT22;10675;47.976;7.824;2023-04-22T07:58:59;14.50;99.90
21033;DHT22;10675;47.976;7.824;2023-04-22T08:01:24;14.80;99.90
21033;DHT22;10675;47.976;7.824;2023-04-22T08:03:50;15.00;99.40
21033;DHT22;10675;47.976;7.824;2023-04-22T08:06:16;15.10;99.00
21033;DHT22;10675;47.976;7.824;2023-04-22T08:08:41;15.30;99.80
21033;DHT22;10675;47.976;7.824;2023-04-22T08:11:07;15.40;98.20
21033;DHT22;10675;47.976;7.824;2023-04-22T08:13:33;15.50;98.60
21033;DHT22;10675;47.976;7.824;2023-04-22T08:16:01;15.90;99.90
21033;DHT22;10675;47.976;7.824;2023-04-22T08:18:28;16.50;97.70
21033;DHT22;10675;47.976;7.824;2023-04-22T08:20:54;16.40;96.30
21033;DHT22;10675;47.976;7.824;2023-04-22T08:23:19;16.40;95.40
21033;DHT22;10675;47.976;7.824;2023-04-22T08:25:46;16.50;95.70
21033;DHT22;10675;47.976;7.824;2023-04-22T08:28:12;16.60;95.50
21033;DHT22;10675;47.976;7.824;2023-04-22T08:30:37;16.80;94.80
21033;DHT22;10675;47.976;7.824;2023-04-22T08:33:03;17.00;94.00
21033;DHT22;10675;47.976;7.824;2023-04-22T08:35:29;17.10;93.20
21033;DHT22;10675;47.976;7.824;2023-04-22T08:37:54;17.30;92.80
21033;DHT22;10675;47.976;7.824;2023-04-22T08:40:20;17.40;92.30
21033;DHT22;10675;47.976;7.824;2023-04-22T08:42:46;17.50;91.30
21033;DHT22;10675;47.976;7.824;2023-04-22T08:45:12;17.40;91.50
21033;DHT22;10675;47.976;7.824;2023-04-22T08:47:39;17.50;91.10
21033;DHT22;10675;47.976;7.824;2023-04-22T08:50:06;17.80;90.70
21033;DHT22;10675;47.976;7.824;2023-04-22T08:52:32;17.80;90.50
21033;DHT22;10675;47.976;7.824;2023-04-22T08:54:58;17.80;91.10
21033;DHT22;10675;47.976;7.824;2023-04-22T08:57:25;17.80;89.80
21033;DHT22;10675;47.976;7.824;2023-04-22T08:59:51;17.80;91.20
21033;DHT22;10675;47.976;7.824;2023-04-22T09:02:20;17.70;90.50
21033;DHT22;10675;47.976;7.824;2023-04-22T09:04:48;17.70;90.20
21033;DHT22;10675;47.976;7.824;2023-04-22T09:07:21;17.70;89.50
21033;DHT22;10675;47.976;7.824;2023-04-22T09:09:47;17.70;88.70
21033;DHT22;10675;47.976;7.824;2023-04-22T09:12:13;17.90;87.60
21033;DHT22;10675;47.976;7.824;2023-04-22T09:14:38;18.10;88.10
21033;DHT22;10675;47.976;7.824;2023-04-22T09:17:04;18.40;85.10
21033;DHT22;10675;47.976;7.824;2023-04-22T09:19:30;18.40;85.90
21033;DHT22;10675;47.976;7.824;2023-04-22T09:21:58;18.90;85.40
21033;DHT22;10675;47.976;7.824;2023-04-22T09:24:24;19.00;83.50
21033;DHT22;10675;47.976;7.824;2023-04-22T09:26:50;19.10;81.90
21033;DHT22;10675;47.976;7.824;2023-04-22T09:29:15;19.20;82.10
21033;DHT22;10675;47.976;7.824;2023-04-22T09:31:47;19.10;81.40
21033;DHT22;10675;47.976;7.824;2023-04-22T09:34:14;19.30;79.70
21033;DHT22;10675;47.976;7.824;2023-04-22T09:36:42;19.30;80.40
21033;DHT22;10675;47.976;7.824;2023-04-22T09:39:07;19.50;80.40
21033;DHT22;10675;47.976;7.824;2023-04-22T09:41:35;19.60;79.30
21033;DHT22;10675;47.976;7.824;2023-04-22T09:44:02;19.70;80.50
21033;DHT22;10675;47.976;7.824;2023-04-22T09:46:29;19.90;79.30
21033;DHT22;10675;47.976;7.824;2023-04-22T09:48:57;19.40;78.70
21033;DHT22;10675;47.976;7.824;2023-04-22T09:51:23;19.10;80.80
21033;DHT22;10675;47.976;7.824;2023-04-22T09:54:04;19.20;77.10
21033;DHT22;10675;47.976;7.824;2023-04-22T09:56:49;19.40;77.70
21033;DHT22;10675;47.976;7.824;2023-04-22T09:59:20;19.80;74.00
21033;DHT22;10675;47.976;7.824;2023-04-22T10:01:51;20.10;73.10
21033;DHT22;10675;47.976;7.824;2023-04-22T10:04:16;20.30;71.20
21033;DHT22;10675;47.976;7.824;2023-04-22T10:06:46;20.40;68.70
21033;DHT22;10675;47.976;7.824;2023-04-22T10:09:12;20.40;69.20
21033;DHT22;10675;47.976;7.824;2023-04-22T10:11:37;20.50;68.00
21033;DHT22;10675;47.976;7.824;2023-04-22T10:14:05;20.80;69.60
21033;DHT22;10675;47.976;7.824;2023-04-22T10:16:32;20.60;70.20
21033;DHT22;10675;47.976;7.824;2023-04-22T10:19:01;20.70;69.80
21033;DHT22;10675;47.976;7.824;2023-04-22T10:21:29;20.50;69.80
21033;DHT22;10675;47.976;7.824;2023-04-22T10:23:57;20.40;69.80
21033;DHT22;10675;47.976;7.824;2023-04-22T10:29:16;20.90;67.00
21033;DHT22;10675;47.976;7.824;2023-04-22T10:31:44;20.90;65.60
21033;DHT22;10675;47.976;7.824;2023-04-22T10:34:14;20.80;66.80
21033;DHT22;10675;47.976;7.824;2023-04-22T10:39:21;20.60;65.50
21033;DHT22;10675;47.976;7.824;2023-04-22T10:42:10;20.40;64.20
21033;DHT22;10675;47.976;7.824;2023-04-22T10:44:53;20.30;63.70
21033;DHT22;10675;47.976;7.824;2023-04-22T10:52:39;19.90;68.10
21033;DHT22;10675;47.976;7.824;2023-04-22T10:55:05;19.70;69.30
21033;DHT22;10675;47.976;7.824;2023-04-22T10:57:37;19.60;68.90
21033;DHT22;10675;47.976;7.824;2023-04-22T11:00:28;19.50;70.20
21033;DHT22;10675;47.976;7.824;2023-04-22T11:03:07;19.40;70.60
21033;DHT22;10675;47.976;7.824;2023-04-22T11:05:33;19.30;70.10
21033;DHT22;10675;47.976;7.824;2023-04-22T11:08:10;19.30;72.60
21033;DHT22;10675;47.976;7.824;2023-04-22T11:10:44;19.20;73.00
21033;DHT22;10675;47.976;7.824;2023-04-22T11:13:15;19.10;73.90
21033;DHT22;10675;47.976;7.824;2023-04-22T11:15:43;19.10;75.40
21033;DHT22;10675;47.976;7.824;2023-04-22T11:18:13;19.20;77.20
21033;DHT22;10675;47.976;7.824;2023-04-22T11:20:39;19.30;77.00
21033;DHT22;10675;47.976;7.824;2023-04-22T11:23:05;19.30;74.20
21033;DHT22;10675;47.976;7.824;2023-04-22T11:25:31;19.40;75.50
21033;DHT22;10675;47.976;7.824;2023-04-22T11:27:57;19.50;74.20
21033;DHT22;10675;47.976;7.824;2023-04-22T11:30:24;19.60;73.80
21033;DHT22;10675;47.976;7.824;2023-04-22T11:32:53;20.10;71.10
21033;DHT22;10675;47.976;7.824;2023-04-22T11:35:33;20.50;68.70
21033;DHT22;10675;47.976;7.824;2023-04-22T11:38:01;20.60;65.60
21033;DHT22;10675;47.976;7.824;2023-04-22T11:40:32;20.70;66.00
21033;DHT22;10675;47.976;7.824;2023-04-22T11:42:59;20.50;65.60
21033;DHT22;10675;47.976;7.824;2023-04-22T11:45:26;20.50;67.70
21033;DHT22;10675;47.976;7.824;2023-04-22T11:47:52;20.40;67.60
21033;DHT22;10675;47.976;7.824;2023-04-22T11:50:21;20.30;67.40
21033;DHT22;10675;47.976;7.824;2023-04-22T11:52:55;20.30;67.40
21033;DHT22;10675;47.976;7.824;2023-04-22T11:55:34;20.40;67.20
21033;DHT22;10675;47.976;7.824;2023-04-22T11:58:06;20.40;67.00
21033;DHT22;10675;47.976;7.824;2023-04-22T12:00:44;20.50;66.20
21033;DHT22;10675;47.976;7.824;2023-04-22T12:03:21;20.60;64.00
21033;DHT22;10675;47.976;7.824;2023-04-22T12:06:00;20.40;65.90
21033;DHT22;10675;47.976;7.824;2023-04-22T12:08:33;20.20;66.60
21033;DHT22;10675;47.976;7.824;2023-04-22T12:11:02;20.10;68.90
21033;DHT22;10675;47.976;7.824;2023-04-22T12:13:30;20.00;67.40
21033;DHT22;10675;47.976;7.824;2023-04-22T12:16:02;19.90;67.50
21033;DHT22;10675;47.976;7.824;2023-04-22T12:18:33;19.80;67.60
21033;DHT22;10675;47.976;7.824;2023-04-22T12:23:47;20.30;67.70
21033;DHT22;10675;47.976;7.824;2023-04-22T12:26:14;20.50;65.90
21033;DHT22;10675;47.976;7.824;2023-04-22T12:28:42;20.60;66.90
21033;DHT22;10675;47.976;7.824;2023-04-22T12:31:10;20.90;65.40
21033;DHT22;10675;47.976;7.824;2023-04-22T12:33:36;20.90;64.60
21033;DHT22;10675;47.976;7.824;2023-04-22T12:36:03;20.90;62.10
21033;DHT22;10675;47.976;7.824;2023-04-22T12:38:28;21.20;65.90
21033;DHT22;10675;47.976;7.824;2023-04-22T12:40:54;21.60;63.80
21033;DHT22;10675;47.976;7.824;2023-04-22T12:43:19;21.70;62.80
21033;DHT22;10675;47.976;7.824;2023-04-22T12:45:45;21.80;60.20
21033;DHT22;10675;47.976;7.824;2023-04-22T12:48:11;21.70;62.10
21033;DHT22;10675;47.976;7.824;2023-04-22T12:50:36;21.60;60.30
21033;DHT22;10675;47.976;7.824;2023-04-22T12:53:02;21.50;62.00
21033;DHT22;10675;47.976;7.824;2023-04-22T12:55:28;21.20;59.80
21033;DHT22;10675;47.976;7.824;2023-04-22T12:57:54;21.30;60.20
21033;DHT22;10675;47.976;7.824;2023-04-22T13:00:21;21.00;60.80
21033;DHT22;10675;47.976;7.824;2023-04-22T13:02:47;21.20;61.60
21033;DHT22;10675;47.976;7.824;2023-04-22T13:05:14;21.10;60.70
21033;DHT22;10675;47.976;7.824;2023-04-22T13:07:40;21.20;60.40
21033;DHT22;10675;47.976;7.824;2023-04-22T13:10:07;21.40;61.30
21033;DHT22;10675;47.976;7.824;2023-04-22T13:12:33;21.40;59.00
21033;DHT22;10675;47.976;7.824;2023-04-22T13:15:00;21.10;58.90
21033;DHT22;10675;47.976;7.824;2023-04-22T13:17:25;21.00;60.00
21033;DHT22;10675;47.976;7.824;2023-04-22T13:19:51;21.10;60.00
21033;DHT22;10675;47.976;7.824;2023-04-22T13:22:17;21.30;59.00
21033;DHT22;10675;47.976;7.824;2023-04-22T13:24:43;21.40;59.00
21033;DHT22;10675;47.976;7.824;2023-04-22T13:27:08;21.40;59.40
21033;DHT22;10675;47.976;7.824;2023-04-22T13:29:35;21.50;59.60
21033;DHT22;10675;47.976;7.824;2023-04-22T13:32:02;21.50;59.80
21033;DHT22;10675;47.976;7.824;2023-04-22T13:34:27;21.50;59.80
21033;DHT22;10675;47.976;7.824;2023-04-22T13:36:53;21.40;59.20
21033;DHT22;10675;47.976;7.824;2023-04-22T13:39:18;21.20;59.80
21033;DHT22;10675;47.976;7.824;2023-04-22T13:41:44;21.50;61.00
21033;DHT22;10675;47.976;7.824;2023-04-22T13:44:11;21.60;59.90
21033;DHT22;10675;47.976;7.824;2023-04-22T13:46:37;21.90;59.30
21033;DHT22;10675;47.976;7.824;2023-04-22T13:49:03;21.90;58.80
21033;DHT22;10675;47.976;7.824;2023-04-22T13:51:29;22.20;58.30
21033;DHT22;10675;47.976;7.824;2023-04-22T13:53:55;22.30;58.80
21033;DHT22;10675;47.976;7.824;2023-04-22T13:56:21;22.20;58.20
21033;DHT22;10675;47.976;7.824;2023-04-22T13:58:47;22.20;58.50
21033;DHT22;10675;47.976;7.824;2023-04-22T14:01:13;22.00;59.80
21033;DHT22;10675;47.976;7.824;2023-04-22T14:03:38;22.20;58.60
21033;DHT22;10675;47.976;7.824;2023-04-22T14:06:04;22.50;58.20
21033;DHT22;10675;47.976;7.824;2023-04-22T14:08:30;22.80;59.00
21033;DHT22;10675;47.976;7.824;2023-04-22T14:10:56;22.50;58.80
21033;DHT22;10675;47.976;7.824;2023-04-22T14:13:24;22.30;59.90
21033;DHT22;10675;47.976;7.824;2023-04-22T14:15:50;22.10;59.50
21033;DHT22;10675;47.976;7.824;2023-04-22T14:18:15;21.80;58.10
21033;DHT22;10675;47.976;7.824;2023-04-22T14:20:41;21.20;57.70
21033;DHT22;10675;47.976;7.824;2023-04-22T14:23:07;21.00;58.80
21033;DHT22;10675;47.976;7.824;2023-04-22T14:25:33;21.00;59.50
21033;DHT22;10675;47.976;7.824;2023-04-22T14:27:58;21.00;59.30
21033;DHT22;10675;47.976;7.824;2023-04-22T14:30:24;21.00;59.40
21033;DHT22;10675;47.976;7.824;2023-04-22T14:32:50;20.70;58.80
21033;DHT22;10675;47.976;7.824;2023-04-22T14:35:16;20.70;59.60
21033;DHT22;10675;47.976;7.824;2023-04-22T14:37:42;20.80;59.80
21033;DHT22;10675;47.976;7.824;2023-04-22T14:40:09;20.80;59.90
21033;DHT22;10675;47.976;7.824;2023-04-22T14:42:36;20.80;59.50
21033;DHT22;10675;47.976;7.824;2023-04-22T14:45:02;20.60;59.90
21033;DHT22;10675;47.976;7.824;2023-04-22T14:47:28;20.50;60.70
21033;DHT22;10675;47.976;7.824;2023-04-22T14:49:54;20.50;61.20
21033;DHT22;10675;47.976;7.824;2023-04-22T14:52:20;20.40;61.20
21033;DHT22;10675;47.976;7.824;2023-04-22T14:54:46;20.40;61.90
21033;DHT22;10675;47.976;7.824;2023-04-22T14:57:12;20.40;62.30
21033;DHT22;10675;47.976;7.824;2023-04-22T14:59:37;20.20;62.10
21033;DHT22;10675;47.976;7.824;2023-04-22T15:02:03;20.20;62.50
21033;DHT22;10675;47.976;7.824;2023-04-22T15:04:29;20.10;62.30
21033;DHT22;10675;47.976;7.824;2023-04-22T15:06:55;20.00;62.90
21033;DHT22;10675;47.976;7.824;2023-04-22T15:09:22;19.90;63.30
21033;DHT22;10675;47.976;7.824;2023-04-22T15:11:49;19.80;63.60
21033;DHT22;10675;47.976;7.824;2023-04-22T15:14:14;19.70;63.30
21033;DHT22;10675;47.976;7.824;2023-04-22T15:16:40;19.50;62.90
21033;DHT22;10675;47.976;7.824;2023-04-22T15:19:06;19.40;63.10
21033;DHT22;10675;47.976;7.824;2023-04-22T15:21:31;19.20;64.00
21033;DHT22;10675;47.976;7.824;2023-04-22T15:23:57;19.10;64.80
21033;DHT22;10675;47.976;7.824;2023-04-22T15:26:23;18.80;65.50
21033;DHT22;10675;47.976;7.824;2023-04-22T15:28:49;18.60;67.50
21033;DHT22;10675;47.976;7.824;2023-04-22T15:31:16;18.30;71.20
21033;DHT22;10675;47.976;7.824;2023-04-22T15:33:41;18.00;72.30
21033;DHT22;10675;47.976;7.824;2023-04-22T15:36:07;18.00;73.50
21033;DHT22;10675;47.976;7.824;2023-04-22T15:38:34;17.90;73.60
21033;DHT22;10675;47.976;7.824;2023-04-22T15:41:00;17.80;71.50
21033;DHT22;10675;47.976;7.824;2023-04-22T15:43:25;17.70;71.70
21033;DHT22;10675;47.976;7.824;2023-04-22T15:45:51;17.60;72.20